Time;durP1;ratioP1;P1;durP2;ratioP2;P2;SDS_P1;SDS_P2;PMS_P1;PMS_P2;Temp;Humidity;BMP_temperature;BMP_pressure;BME280_temperature;BME280_humidity;BME280_pressure;Samples;Min_cycle;Max_cycle;Signal;HPM_P1;HPM_P2
2022/10/14 00:01:16;;;;;;;17.38;10.70;;;;;;;12.19;100.00;98992.78;5049512;28;20032;-69
2022/10/14 00:03:42;;;;;;;19.23;11.90;;;;;;;12.20;100.00;98985.47;5046693;28;20033;-69
2022/10/14 00:06:13;;;;;;;18.58;10.35;;;;;;;12.18;100.00;98987.53;5040801;28;20491;-69
2022/10/14 00:08:40;;;;;;;18.73;10.32;;;;;;;12.20;100.00;98982.75;5043538;28;20036;-69
2022/10/14 00:11:12;;;;;;;22.25;11.65;;;;;;;12.29;100.00;98970.66;5046652;28;20103;-69
2022/10/14 00:13:38;;;;;;;22.27;11.57;;;;;;;12.46;100.00;98982.72;5047811;28;20082;-69
2022/10/14 00:16:05;;;;;;;18.55;11.30;;;;;;;12.54;100.00;98969.97;5039595;28;20033;-69
2022/10/14 00:18:31;;;;;;;18.38;10.95;;;;;;;12.56;100.00;98959.75;5045447;28;20052;-69
2022/10/14 00:20:59;;;;;;;17.08;10.23;;;;;;;12.46;100.00;98950.16;5053238;28;20086;-69
2022/10/14 00:23:26;;;;;;;23.60;11.00;;;;;;;12.45;100.00;98964.78;5051584;28;20025;-70
2022/10/14 00:25:51;;;;;;;21.00;10.85;;;;;;;12.40;100.00;98959.16;5042999;28;20028;-70
2022/10/14 00:28:17;;;;;;;19.50;10.55;;;;;;;12.32;100.00;98967.50;5047307;28;20082;-69
2022/10/14 00:30:55;;;;;;;15.98;10.93;;;;;;;12.18;100.00;98952.28;5051542;28;20029;-69
2022/10/14 00:33:21;;;;;;;22.40;11.30;;;;;;;12.18;100.00;98964.00;5049316;28;20051;-69
2022/10/14 00:35:58;;;;;;;30.00;12.52;;;;;;;12.17;100.00;98966.91;5048487;28;20028;-69
2022/10/14 00:38:23;;;;;;;22.70;11.40;;;;;;;12.19;100.00;98962.09;5039270;28;20505;-69
2022/10/14 00:40:49;;;;;;;17.27;10.45;;;;;;;12.31;100.00;98973.13;5049148;28;20055;-69
2022/10/14 00:43:15;;;;;;;18.90;11.30;;;;;;;12.30;100.00;98969.59;5046460;28;20400;-69
2022/10/14 00:45:40;;;;;;;22.17;11.60;;;;;;;12.23;100.00;98969.59;5042541;28;20032;-69
2022/10/14 00:48:07;;;;;;;19.77;11.75;;;;;;;12.22;100.00;98970.66;5042059;28;20024;-69
2022/10/14 00:50:33;;;;;;;24.02;11.77;;;;;;;12.19;100.00;98973.78;5042394;28;20036;-69
2022/10/14 00:52:59;;;;;;;18.23;10.55;;;;;;;12.12;100.00;98962.09;5050811;28;20037;-69
2022/10/14 00:55:25;;;;;;;18.90;11.35;;;;;;;12.19;100.00;98979.22;5044290;28;20028;-69
2022/10/14 00:57:50;;;;;;;23.05;11.80;;;;;;;12.19;100.00;98975.66;5054705;28;20071;-69
2022/10/14 01:00:18;;;;;;;20.10;11.13;;;;;;;12.17;100.00;98981.28;5048784;28;20367;-69
2022/10/14 01:02:44;;;;;;;18.65;11.75;;;;;;;12.17;100.00;98972.31;5051815;28;20096;-69
2022/10/14 01:05:13;;;;;;;18.88;11.15;;;;;;;12.17;100.00;98975.88;5050283;28;20024;-69
2022/10/14 01:07:54;;;;;;;25.17;11.57;;;;;;;12.17;100.00;98980.47;5042093;28;20179;-69
2022/10/14 01:10:40;;;;;;;22.15;12.10;;;;;;;12.21;100.00;98981.72;5040847;28;20041;-69
2022/10/14 01:13:25;;;;;;;22.33;10.98;;;;;;;12.29;100.00;98967.94;5046509;28;20493;-69
2022/10/14 01:16:07;;;;;;;21.85;10.40;;;;;;;12.23;100.00;98975.00;5032973;28;20033;-69
2022/10/14 01:18:51;;;;;;;17.58;9.88;;;;;;;12.25;100.00;98977.53;5047696;28;20025;-69
2022/10/14 01:21:23;;;;;;;22.48;11.57;;;;;;;12.20;100.00;98975.44;5040146;28;20444;-69
2022/10/14 01:23:55;;;;;;;19.25;10.27;;;;;;;12.27;100.00;98972.72;5040162;28;20029;-69
2022/10/14 01:26:58;;;;;;;18.70;10.70;;;;;;;12.26;100.00;98974.63;5040539;28;20049;-70
2022/10/14 01:29:50;;;;;;;24.38;11.15;;;;;;;12.35;100.00;98966.25;5038879;28;20037;-70
2022/10/14 01:32:24;;;;;;;20.95;11.20;;;;;;;12.32;100.00;98967.50;5043676;28;20487;-69
2022/10/14 01:35:01;;;;;;;19.75;10.80;;;;;;;12.26;100.00;98950.22;5038407;28;20057;-70
2022/10/14 01:37:29;;;;;;;19.85;11.15;;;;;;;12.24;100.00;98943.31;5042965;28;20028;-70
2022/10/14 01:40:00;;;;;;;19.75;12.02;;;;;;;12.29;100.00;98943.53;5040174;28;20017;-70
2022/10/14 01:42:31;;;;;;;21.30;11.82;;;;;;;12.35;100.00;98956.22;5039426;28;20103;-69
2022/10/14 01:45:03;;;;;;;19.67;11.57;;;;;;;12.28;100.00;98945.38;5041910;28;20029;-70
2022/10/14 01:47:32;;;;;;;21.25;11.68;;;;;;;12.34;100.00;98948.28;5040281;28;20078;-70
2022/10/14 01:50:09;;;;;;;16.33;10.23;;;;;;;12.31;100.00;98949.56;5046626;28;20029;-69
2022/10/14 01:52:46;;;;;;;19.00;10.82;;;;;;;12.31;100.00;98957.69;5049155;28;20036;-69
2022/10/14 01:55:16;;;;;;;20.08;11.63;;;;;;;12.31;100.00;98954.97;5044815;28;20036;-70
2022/10/14 01:57:43;;;;;;;20.20;11.27;;;;;;;12.28;100.00;98950.81;5040844;28;20047;-69
2022/10/14 02:00:10;;;;;;;17.17;9.98;;;;;;;12.25;100.00;98948.53;5045527;28;20079;-70
2022/10/14 02:02:36;;;;;;;16.75;9.60;;;;;;;12.26;100.00;98949.34;5043699;28;20390;-69
2022/10/14 02:05:08;;;;;;;17.67;10.35;;;;;;;12.27;100.00;98948.31;5039982;28;20590;-70
2022/10/14 02:07:40;;;;;;;20.75;11.02;;;;;;;12.25;100.00;98944.97;5086857;22;20098;-71
2022/10/14 02:10:36;;;;;;;15.75;9.52;;;;;;;12.29;100.00;98948.94;5050797;28;20104;-72
2022/10/14 02:13:04;;;;;;;13.75;9.00;;;;;;;12.30;100.00;98950.59;5047820;28;20025;-72
2022/10/14 02:15:48;;;;;;;17.45;11.30;;;;;;;12.31;100.00;98948.72;5044242;28;20063;-72
2022/10/14 02:18:28;;;;;;;17.05;9.55;;;;;;;12.32;100.00;98953.94;5050124;28;20020;-72
2022/10/14 02:21:11;;;;;;;16.00;9.13;;;;;;;12.31;100.00;98951.44;5034641;28;20075;-72
2022/10/14 02:23:43;;;;;;;16.05;10.23;;;;;;;12.22;100.00;98937.25;5044345;28;20029;-72
2022/10/14 02:26:09;;;;;;;24.10;10.45;;;;;;;12.28;100.00;98933.69;5037247;28;20343;-72
2022/10/14 02:28:35;;;;;;;19.08;9.73;;;;;;;12.21;100.00;98920.16;5040979;28;20028;-71
2022/10/14 02:31:09;;;;;;;22.52;11.32;;;;;;;12.30;100.00;98936.22;5056088;28;20179;-71
2022/10/14 02:33:40;;;;;;;17.73;10.73;;;;;;;12.18;100.00;98925.16;5047538;28;20024;-71
2022/10/14 02:36:08;;;;;;;24.77;10.75;;;;;;;12.19;100.00;98922.25;5039018;28;20100;-71
2022/10/14 02:38:35;;;;;;;17.42;10.25;;;;;;;12.18;100.00;98927.88;5043702;28;20029;-71
2022/10/14 02:41:04;;;;;;;16.88;10.15;;;;;;;12.24;100.00;98921.63;5040825;28;20089;-72
2022/10/14 02:43:29;;;;;;;18.90;10.68;;;;;;;12.40;100.00;98926.59;5039230;28;20029;-71
2022/10/14 02:45:58;;;;;;;17.00;10.13;;;;;;;12.33;100.00;98924.94;5035827;28;20510;-72
2022/10/14 02:48:23;;;;;;;17.88;10.93;;;;;;;12.22;100.00;98915.56;5033385;28;20029;-72
2022/10/14 02:50:48;;;;;;;18.40;11.35;;;;;;;12.11;100.00;98913.50;5035065;28;20029;-72
2022/10/14 02:53:15;;;;;;;21.02;11.35;;;;;;;12.23;100.00;98923.47;5038616;28;20036;-72
2022/10/14 02:55:40;;;;;;;19.63;10.95;;;;;;;12.17;100.00;98937.06;5044164;28;20037;-71
2022/10/14 02:58:06;;;;;;;26.40;11.65;;;;;;;12.09;100.00;98921.00;5044296;28;20075;-71
2022/10/14 03:00:31;;;;;;;21.52;12.05;;;;;;;11.95;100.00;98901.22;5039400;28;20048;-72
2022/10/14 03:02:56;;;;;;;23.10;11.73;;;;;;;11.98;100.00;98909.75;5048486;28;20036;-72
2022/10/14 03:05:21;;;;;;;20.00;10.98;;;;;;;12.02;100.00;98915.56;5038906;28;20108;-71
2022/10/14 03:07:47;;;;;;;19.23;10.93;;;;;;;11.91;100.00;98889.09;5037688;28;20028;-73
2022/10/14 03:10:12;;;;;;;19.92;10.05;;;;;;;12.00;100.00;98904.13;5041054;28;20410;-75
2022/10/14 03:12:37;;;;;;;18.98;10.20;;;;;;;11.99;100.00;98886.19;5044749;28;20457;-76
2022/10/14 03:15:03;;;;;;;14.43;8.88;;;;;;;11.93;100.00;98871.59;5040326;28;20087;-76
2022/10/14 03:17:29;;;;;;;13.85;8.00;;;;;;;11.85;100.00;98863.66;5045192;28;20033;-76
2022/10/14 03:19:54;;;;;;;12.25;8.23;;;;;;;11.91;100.00;98883.69;5050605;28;20096;-77
2022/10/14 03:22:20;;;;;;;14.95;7.20;;;;;;;11.81;100.00;98846.13;5053655;28;20029;-76
2022/10/14 03:24:45;;;;;;;10.63;6.85;;;;;;;11.93;100.00;98868.88;5050174;28;20064;-79
2022/10/14 03:27:10;;;;;;;12.80;6.57;;;;;;;11.82;100.00;98854.06;5050651;28;20475;-78
2022/10/14 03:29:36;;;;;;;11.38;6.95;;;;;;;11.93;100.00;98868.88;5047327;28;20025;-76
2022/10/14 03:32:01;;;;;;;12.07;6.53;;;;;;;11.94;100.00;98862.41;5052388;28;20036;-76
2022/10/14 03:34:26;;;;;;;13.88;6.18;;;;;;;11.96;100.00;98862.19;5045125;28;20071;-75
2022/10/14 03:36:51;;;;;;;10.15;6.03;;;;;;;12.00;100.00;98861.56;5046418;28;20052;-76
2022/10/14 03:39:17;;;;;;;15.93;6.18;;;;;;;12.03;100.00;98858.44;5044432;28;20516;-75
2022/10/14 03:41:42;;;;;;;12.10;5.97;;;;;;;11.86;100.00;98832.81;5054112;28;20025;-75
2022/10/14 03:44:08;;;;;;;12.05;5.68;;;;;;;12.02;100.00;98850.50;5047837;28;20100;-75
2022/10/14 03:46:33;;;;;;;11.68;6.00;;;;;;;11.81;100.00;98821.72;5048367;28;20021;-76
2022/10/14 03:48:58;;;;;;;14.75;6.30;;;;;;;11.93;100.00;98844.47;5043220;28;20024;-74
2022/10/14 03:51:24;;;;;;;11.57;7.00;;;;;;;12.02;100.00;98861.34;5049139;28;20390;-76
2022/10/14 03:53:49;;;;;;;13.25;7.57;;;;;;;11.94;100.00;98834.47;5049346;28;20033;-77
2022/10/14 03:56:14;;;;;;;13.13;6.53;;;;;;;11.92;100.00;98837.41;5046004;28;20458;-73
2022/10/14 03:58:40;;;;;;;11.70;6.68;;;;;;;12.02;100.00;98843.19;5044295;28;20438;-76
2022/10/14 04:01:05;;;;;;;10.60;7.18;;;;;;;11.97;100.00;98840.31;5046633;28;20386;-76
2022/10/14 04:03:30;;;;;;;17.80;7.72;;;;;;;11.92;100.00;98826.56;5053102;28;20016;-74
2022/10/14 04:05:56;;;;;;;11.57;6.90;;;;;;;12.02;100.00;98837.78;5058923;28;20545;-72
2022/10/14 04:08:21;;;;;;;16.30;6.68;;;;;;;12.03;100.00;98834.03;5046984;28;20031;-74
2022/10/14 04:10:51;;;;;;;10.68;7.00;;;;;;;11.97;100.00;98824.03;5050170;28;20033;-75
2022/10/14 04:13:17;;;;;;;10.70;7.20;;;;;;;12.02;100.00;98826.91;5045377;28;20063;-72
2022/10/14 04:15:42;;;;;;;8.15;5.95;;;;;;;12.06;100.00;98827.34;5035995;28;20057;-69
2022/10/14 04:18:07;;;;;;;14.57;6.28;;;;;;;11.93;100.00;98806.53;5039975;28;20026;-75
2022/10/14 04:20:33;;;;;;;7.22;5.38;;;;;;;11.96;100.00;98797.13;5049305;28;20112;-73
2022/10/14 04:22:59;;;;;;;9.48;6.03;;;;;;;12.12;100.00;98810.22;5038114;28;20090;-70
2022/10/14 04:25:25;;;;;;;10.30;5.55;;;;;;;11.99;100.00;98799.41;5035388;28;20471;-73
2022/10/14 04:27:50;;;;;;;12.15;6.90;;;;;;;12.10;100.00;98811.47;5041564;28;20154;-67
2022/10/14 04:30:15;;;;;;;11.50;5.70;;;;;;;12.09;100.00;98815.25;5044558;28;20498;-69
2022/10/14 04:32:40;;;;;;;10.68;5.28;;;;;;;11.78;100.00;98779.59;5037983;28;20025;-69
2022/10/14 04:35:06;;;;;;;10.27;5.40;;;;;;;12.01;100.00;98814.41;5041483;28;20099;-70
2022/10/14 04:37:31;;;;;;;13.30;5.50;;;;;;;12.11;100.00;98813.16;5044479;28;20028;-68
2022/10/14 04:39:57;;;;;;;9.63;5.72;;;;;;;12.10;100.00;98814.19;5037832;28;20021;-69
2022/10/14 04:42:22;;;;;;;8.60;5.47;;;;;;;12.04;100.00;98811.28;5040197;28;20385;-67
2022/10/14 04:44:47;;;;;;;11.63;6.20;;;;;;;12.01;100.00;98813.59;5038800;28;20021;-67
2022/10/14 04:47:13;;;;;;;15.35;5.95;;;;;;;11.98;100.00;98808.59;5041943;28;20029;-69
2022/10/14 04:49:38;;;;;;;9.00;6.15;;;;;;;11.88;100.00;98794.66;5037423;28;20029;-69
2022/10/14 04:52:03;;;;;;;14.73;6.15;;;;;;;11.94;100.00;98801.94;5043079;28;20075;-70
2022/10/14 04:54:29;;;;;;;12.70;6.00;;;;;;;11.96;100.00;98805.25;5045260;28;20105;-68
2022/10/14 04:56:55;;;;;;;9.02;5.78;;;;;;;11.97;100.00;98807.78;5058684;28;20028;-68
2022/10/14 04:59:20;;;;;;;10.35;5.72;;;;;;;11.90;100.00;98793.41;5052546;28;20039;-71
2022/10/14 05:01:45;;;;;;;10.18;5.40;;;;;;;11.93;100.00;98805.69;5055049;28;20466;-72
2022/10/14 05:04:10;;;;;;;8.77;5.90;;;;;;;11.80;100.00;98774.00;5049954;28;20547;-74
2022/10/14 05:06:36;;;;;;;10.70;6.47;;;;;;;11.84;100.00;98758.94;5038629;28;20162;-74
2022/10/14 05:09:03;;;;;;;13.10;6.35;;;;;;;12.11;100.00;98780.63;5040603;28;20013;-75
2022/10/14 05:11:29;;;;;;;8.65;6.00;;;;;;;12.24;100.00;98775.16;5031559;28;20029;-72
2022/10/14 05:13:54;;;;;;;8.38;6.05;;;;;;;11.98;100.00;98747.06;5034163;28;20036;-74
2022/10/14 05:16:19;;;;;;;9.45;5.80;;;;;;;12.05;100.00;98769.56;5047588;28;20036;-69
2022/10/14 05:18:45;;;;;;;10.32;5.85;;;;;;;11.99;100.00;98765.00;5038479;28;20026;-69
2022/10/14 05:21:10;;;;;;;15.27;7.10;;;;;;;11.96;100.00;98764.59;5036929;28;20025;-69
2022/10/14 05:23:35;;;;;;;9.85;6.63;;;;;;;11.86;100.00;98751.47;5050214;28;20071;-70
2022/10/14 05:26:01;;;;;;;10.57;7.00;;;;;;;11.89;100.00;98771.91;5041538;28;20032;-69
2022/10/14 05:28:26;;;;;;;11.80;7.32;;;;;;;11.85;100.00;98758.75;5045191;28;20036;-68
2022/10/14 05:30:51;;;;;;;14.43;9.00;;;;;;;11.81;100.00;98768.34;5036472;28;20041;-69
2022/10/14 05:33:16;;;;;;;17.35;9.88;;;;;;;11.67;100.00;98747.75;5039945;28;20024;-69
2022/10/14 05:35:42;;;;;;;18.33;9.63;;;;;;;11.78;100.00;98760.63;5042973;28;20038;-69
2022/10/14 05:38:08;;;;;;;16.92;8.80;;;;;;;11.76;100.00;98754.63;5045704;28;20060;-69
2022/10/14 05:40:33;;;;;;;13.25;8.85;;;;;;;11.76;100.00;98751.91;5044122;28;20035;-69
2022/10/14 05:42:58;;;;;;;20.35;8.43;;;;;;;11.70;100.00;98743.78;5040839;28;20112;-69
2022/10/14 05:45:25;;;;;;;14.73;8.40;;;;;;;11.79;100.00;98756.91;5043393;28;20502;-68
2022/10/14 05:47:51;;;;;;;14.75;8.60;;;;;;;11.70;100.00;98746.50;5043163;28;20060;-68
2022/10/14 05:50:16;;;;;;;13.13;7.68;;;;;;;11.82;100.00;98761.88;5047091;28;20497;-69
2022/10/14 05:52:42;;;;;;;12.75;7.80;;;;;;;11.84;100.00;98769.78;5040052;28;20749;-68
2022/10/14 05:55:08;;;;;;;13.55;7.38;;;;;;;11.84;100.00;98735.41;5033646;28;20037;-69
2022/10/14 05:57:33;;;;;;;12.15;6.43;;;;;;;12.01;100.00;98762.06;5035467;28;20036;-69
2022/10/14 05:59:59;;;;;;;10.93;6.68;;;;;;;12.05;100.00;98764.16;5043999;28;20107;-69
2022/10/14 06:02:25;;;;;;;10.32;5.57;;;;;;;12.10;100.00;98757.25;5038386;28;20543;-69
2022/10/14 06:04:50;;;;;;;12.43;6.20;;;;;;;12.17;100.00;98753.47;5046363;28;20033;-69
2022/10/14 06:07:16;;;;;;;13.63;7.15;;;;;;;12.20;100.00;98753.03;5040581;28;20490;-69
2022/10/14 06:09:41;;;;;;;15.23;6.38;;;;;;;12.24;100.00;98756.16;5034830;28;20112;-69
2022/10/14 06:12:08;;;;;;;12.48;6.93;;;;;;;12.18;100.00;98754.28;5039059;28;20156;-69
2022/10/14 06:14:33;;;;;;;11.57;6.72;;;;;;;12.23;100.00;98749.03;5048389;28;20033;-69
2022/10/14 06:16:59;;;;;;;11.57;7.72;;;;;;;12.29;100.00;98750.91;5046939;28;20506;-68
2022/10/14 06:19:24;;;;;;;14.13;7.93;;;;;;;12.09;100.00;98723.88;5047153;28;20024;-73
2022/10/14 06:21:49;;;;;;;12.00;7.45;;;;;;;12.24;100.00;98761.59;5039762;28;20604;-69
2022/10/14 06:24:15;;;;;;;9.77;6.88;;;;;;;12.30;100.00;98758.00;5037286;28;20033;-70
2022/10/14 06:26:40;;;;;;;10.88;6.70;;;;;;;12.32;100.00;98755.09;5048006;28;20036;-70
2022/10/14 06:29:06;;;;;;;11.70;6.38;;;;;;;12.31;100.00;98748.78;5049925;28;20032;-75
2022/10/14 06:31:31;;;;;;;13.23;6.00;;;;;;;12.36;100.00;98748.97;5042975;28;20036;-70
2022/10/14 06:33:56;;;;;;;9.57;5.88;;;;;;;12.31;100.00;98723.56;5043030;28;20025;-75
2022/10/14 06:36:22;;;;;;;12.40;6.78;;;;;;;12.38;100.00;98725.19;5044979;28;20032;-72
2022/10/14 06:38:47;;;;;;;12.30;7.10;;;;;;;12.49;100.00;98740.78;5041199;28;20083;-70
2022/10/14 06:41:12;;;;;;;10.63;6.40;;;;;;;12.56;100.00;98742.63;5035809;28;20033;-71
2022/10/14 06:43:38;;;;;;;13.73;6.43;;;;;;;12.62;100.00;98742.59;5038161;28;20542;-73
2022/10/14 06:46:04;;;;;;;10.98;5.78;;;;;;;12.70;100.00;98744.19;5041918;28;20131;-70
2022/10/14 06:48:30;;;;;;;12.10;6.95;;;;;;;12.73;100.00;98746.47;5041647;28;20044;-67
2022/10/14 06:51:00;;;;;;;8.98;5.78;;;;;;;12.75;100.00;98743.56;5037412;28;20048;-72
2022/10/14 06:53:26;;;;;;;11.52;6.45;;;;;;;12.72;100.00;98729.38;5036328;28;20394;-65
2022/10/14 06:56:03;;;;;;;9.85;5.80;;;;;;;12.97;100.00;98746.72;5044396;28;20029;-65
2022/10/14 06:58:29;;;;;;;12.35;6.15;;;;;;;13.00;100.00;98749.84;5047045;28;20025;-67
2022/10/14 07:01:00;;;;;;;11.02;5.97;;;;;;;13.14;100.00;98743.25;5038079;28;20389;-70
2022/10/14 07:03:25;;;;;;;13.77;6.82;;;;;;;13.01;100.00;98710.78;5043776;28;20061;-71
2022/10/14 07:05:50;;;;;;;9.20;5.80;;;;;;;13.26;100.00;98731.69;5048619;28;20479;-72
2022/10/14 07:08:16;;;;;;;8.35;4.97;;;;;;;13.40;100.00;98737.88;5039889;28;20030;-67
2022/10/14 07:10:41;;;;;;;9.95;5.20;;;;;;;13.41;100.00;98737.63;5046686;28;20082;-67
2022/10/14 07:13:07;;;;;;;9.07;5.50;;;;;;;13.40;100.00;98721.56;5050157;28;20048;-71
2022/10/14 07:15:32;;;;;;;6.60;4.45;;;;;;;13.47;100.00;98719.63;5046826;28;20037;-76
2022/10/14 07:17:58;;;;;;;7.93;4.85;;;;;;;13.34;100.00;98713.25;5054970;28;20059;-74
2022/10/14 07:20:23;;;;;;;8.20;5.20;;;;;;;13.45;100.00;98727.16;5042319;28;20035;-74
2022/10/14 07:22:48;;;;;;;9.25;5.13;;;;;;;13.47;100.00;98719.63;5048172;28;20116;-73
2022/10/14 07:25:13;;;;;;;9.50;4.75;;;;;;;13.61;100.00;98733.91;5051460;28;20383;-70
2022/10/14 07:27:39;;;;;;;8.55;4.75;;;;;;;13.70;100.00;98736.09;5048702;28;20491;-72
2022/10/14 07:30:04;;;;;;;10.85;4.38;;;;;;;13.53;100.00;98700.50;5048192;28;20071;-74
2022/10/14 07:32:30;;;;;;;9.52;4.82;;;;;;;13.79;100.00;98721.13;5042981;28;20069;-71
2022/10/14 07:34:55;;;;;;;7.70;4.00;;;;;;;13.90;100.00;98716.84;5042994;28;20029;-70
2022/10/14 07:37:21;;;;;;;7.60;4.20;;;;;;;13.72;100.00;98720.38;5036936;28;20079;-75
2022/10/14 07:39:46;;;;;;;8.75;4.68;;;;;;;13.77;100.00;98736.03;5049811;28;20467;-70
2022/10/14 07:42:11;;;;;;;7.20;4.50;;;;;;;13.78;100.00;98734.94;5047407;28;20033;-66
2022/10/14 07:44:38;;;;;;;10.55;5.78;;;;;;;13.86;100.00;98726.53;5047326;28;20426;-74
2022/10/14 07:47:04;;;;;;;12.13;5.57;;;;;;;13.81;100.00;98720.94;5040455;28;20048;-75
2022/10/14 07:49:30;;;;;;;10.50;5.40;;;;;;;13.98;100.00;98742.91;5044226;28;20017;-75
2022/10/14 07:51:56;;;;;;;10.02;4.32;;;;;;;14.01;100.00;98737.00;5050474;28;20044;-70
2022/10/14 07:54:25;;;;;;;12.23;4.63;;;;;;;14.15;100.00;98735.81;5045125;28;20055;-71
2022/10/14 07:56:50;;;;;;;7.53;3.80;;;;;;;14.12;100.00;98727.25;5049585;28;20024;-73
2022/10/14 07:59:18;;;;;;;8.50;3.70;;;;;;;14.39;100.00;98720.41;5049943;28;20408;-74
2022/10/14 08:01:47;;;;;;;5.38;3.80;;;;;;;14.35;100.00;98711.03;5040978;28;20032;-73
2022/10/14 08:04:13;;;;;;;6.00;3.97;;;;;;;14.32;100.00;98694.34;5044259;28;20029;-73
2022/10/14 08:06:39;;;;;;;7.35;4.13;;;;;;;14.50;100.00;98718.78;5044992;28;20036;-74
2022/10/14 08:09:05;;;;;;;9.00;3.85;;;;;;;14.59;100.00;98706.56;5047318;28;20025;-75
2022/10/14 08:11:31;;;;;;;8.90;3.80;;;;;;;14.75;100.00;98712.38;5049594;28;20033;-73
2022/10/14 08:13:57;;;;;;;6.43;4.22;;;;;;;14.79;100.00;98725.31;5047596;28;20021;-67
2022/10/14 08:16:28;;;;;;;9.65;4.20;;;;;;;14.96;100.00;98721.91;5047069;28;20500;-67
2022/10/14 08:18:59;;;;;;;4.88;3.40;;;;;;;15.14;100.00;98713.66;5045510;28;20068;-71
2022/10/14 08:21:25;;;;;;;6.10;3.35;;;;;;;14.98;100.00;98666.13;5046350;28;20418;-76
2022/10/14 08:23:51;;;;;;;7.00;3.58;;;;;;;15.23;100.00;98711.44;5041767;28;20029;-76
2022/10/14 08:26:27;;;;;;;6.80;3.78;;;;;;;15.01;100.00;98698.38;5045566;28;20090;-67
2022/10/14 08:28:53;;;;;;;5.40;3.08;;;;;;;15.21;100.00;98708.09;5041630;28;20013;-70
2022/10/14 08:31:19;;;;;;;11.55;3.53;;;;;;;15.25;100.00;98706.56;5038378;28;20044;-73
2022/10/14 08:33:45;;;;;;;6.63;3.20;;;;;;;15.44;100.00;98699.09;5044667;28;20021;-73
2022/10/14 08:36:10;;;;;;;7.07;3.95;;;;;;;15.32;100.00;98680.00;5051635;28;20033;-75
2022/10/14 08:38:36;;;;;;;8.68;3.03;;;;;;;15.49;100.00;98683.69;5049268;28;20037;-75
2022/10/14 08:41:06;;;;;;;7.25;3.63;;;;;;;15.89;100.00;98698.50;5049563;28;20052;-73
2022/10/14 08:43:38;;;;;;;7.60;3.00;;;;;;;15.99;100.00;98702.25;5043757;28;20432;-73
2022/10/14 08:46:23;;;;;;;5.35;3.33;;;;;;;16.03;100.00;98702.59;5049155;28;20028;-73
2022/10/14 08:48:54;;;;;;;11.10;4.22;;;;;;;15.54;100.00;98702.06;5041841;28;20013;-73
2022/10/14 08:51:20;;;;;;;6.38;3.28;;;;;;;15.32;100.00;98696.38;5046338;28;20038;-72
2022/10/14 08:53:50;;;;;;;11.02;3.58;;;;;;;15.28;100.00;98697.91;5039120;28;20116;-72
2022/10/14 08:56:16;;;;;;;13.32;3.65;;;;;;;15.15;100.00;98681.81;5046429;28;20099;-73
2022/10/14 08:58:48;;;;;;;9.50;3.85;;;;;;;15.27;100.00;98690.78;5043356;28;20021;-76
2022/10/14 09:01:25;;;;;;;8.15;3.42;;;;;;;15.16;100.00;98695.16;5040460;28;20064;-70
2022/10/14 09:03:57;;;;;;;8.20;3.70;;;;;;;15.13;100.00;98696.47;5043233;28;20033;-73
2022/10/14 09:06:28;;;;;;;7.63;3.80;;;;;;;14.97;100.00;98699.91;5046596;28;20029;-66
2022/10/14 09:09:05;;;;;;;12.00;3.95;;;;;;;14.95;100.00;98696.56;5040905;28;20055;-68
2022/10/14 09:11:37;;;;;;;7.72;3.50;;;;;;;14.98;100.00;98698.81;5042580;28;20032;-74
2022/10/14 09:14:07;;;;;;;14.25;3.78;;;;;;;14.80;100.00;98674.38;5047287;28;20021;-78
2022/10/14 09:16:37;;;;;;;6.50;3.75;;;;;;;14.76;100.00;98684.94;5037961;28;20021;-78
2022/10/14 09:19:17;;;;;;;10.30;3.83;;;;;;;14.81;100.00;98689.69;5039141;28;20533;-75
2022/10/14 09:21:48;;;;;;;7.97;4.00;;;;;;;14.69;100.00;98686.91;5046423;28;20051;-74
2022/10/14 09:24:18;;;;;;;8.98;3.85;;;;;;;14.77;100.00;98688.47;5040695;28;20034;-73
2022/10/14 09:26:50;;;;;;;5.68;3.58;;;;;;;14.86;100.00;98684.38;5049372;28;20035;-73
2022/10/14 09:29:25;;;;;;;9.25;3.33;;;;;;;14.90;100.00;98691.00;5044664;28;20048;-74
2022/10/14 09:31:54;;;;;;;7.90;3.80;;;;;;;14.87;100.00;98691.47;5034727;28;20083;-68
2022/10/14 09:34:29;;;;;;;18.67;4.20;;;;;;;14.74;100.00;98664.44;5038467;28;20017;-68
2022/10/14 09:37:03;;;;;;;7.50;3.67;;;;;;;14.81;100.00;98679.63;5034151;28;20278;-68
2022/10/14 09:39:29;;;;;;;7.90;3.72;;;;;;;14.88;100.00;98701.28;5046619;28;20029;-68
2022/10/14 09:41:57;;;;;;;8.13;3.53;;;;;;;14.90;100.00;98696.44;5040575;28;20036;-68
2022/10/14 09:44:24;;;;;;;7.40;3.85;;;;;;;15.04;100.00;98687.00;5042611;28;20482;-68
2022/10/14 09:47:04;;;;;;;9.38;4.03;;;;;;;15.12;100.00;98672.19;5035558;28;20044;-68
2022/10/14 09:49:40;;;;;;;5.65;3.92;;;;;;;15.44;100.00;98680.03;5039213;28;20087;-69
2022/10/14 09:52:07;;;;;;;7.15;4.47;;;;;;;15.69;100.00;98677.91;5041666;28;20557;-67
2022/10/14 09:54:33;;;;;;;8.55;3.85;;;;;;;15.86;100.00;98682.59;5039495;28;20041;-67
2022/10/14 09:57:13;;;;;;;8.40;3.90;;;;;;;15.99;100.00;98657.78;5040483;28;20368;-67
2022/10/14 09:59:50;;;;;;;7.65;3.60;;;;;;;16.06;100.00;98666.66;5045090;28;20053;-67
2022/10/14 10:02:25;;;;;;;6.90;4.20;;;;;;;16.13;100.00;98666.50;5053169;22;20400;-59
2022/10/14 10:04:51;;;;;;;7.53;4.07;;;;;;;16.08;100.00;98661.75;5037048;28;20044;-59
2022/10/14 10:07:28;;;;;;;10.98;4.53;;;;;;;16.23;100.00;98671.34;5035932;28;20029;-60
2022/10/14 10:09:59;;;;;;;7.97;3.45;;;;;;;16.25;100.00;98658.28;5040901;28;20021;-59
2022/10/14 10:12:33;;;;;;;6.80;3.72;;;;;;;16.17;100.00;98671.25;5039763;28;20072;-60
2022/10/14 10:15:05;;;;;;;8.57;3.75;;;;;;;16.40;100.00;98659.41;5037105;28;20028;-59
2022/10/14 10:17:34;;;;;;;6.63;4.03;;;;;;;16.67;100.00;98652.50;5042685;28;20526;-63
2022/10/14 10:20:19;;;;;;;;;;;;;;;16.82;100.00;98656.34;5037001;28;20067;-63
2022/10/14 10:22:45;;;;;;;10.48;4.32;;;;;;;17.47;100.00;98645.84;5039514;28;19917;-71
2022/10/14 10:25:10;;;;;;;7.88;3.35;;;;;;;17.78;100.00;98651.72;5035654;28;20544;-63
2022/10/14 10:27:38;;;;;;;9.57;4.10;;;;;;;18.10;100.00;98638.19;5032766;28;20042;-63
2022/10/14 10:30:16;;;;;;;9.77;3.63;;;;;;;17.78;100.00;98632.56;5041484;28;20035;-64
2022/10/14 10:32:47;;;;;;;6.78;3.53;;;;;;;17.91;100.00;98632.22;5042446;28;20578;-63
2022/10/14 10:35:36;;;;;;;5.38;3.03;;;;;;;18.01;100.00;98634.25;5031520;28;20041;-63
2022/10/14 10:38:22;;;;;;;6.50;3.05;;;;;;;18.03;100.00;98619.25;5033003;28;20432;-63
2022/10/14 10:41:05;;;;;;;4.75;2.92;;;;;;;18.34;100.00;98609.44;5031207;28;20033;-63
2022/10/14 10:43:44;;;;;;;6.22;2.70;;;;;;;18.61;100.00;98603.09;5034105;28;20175;-63
2022/10/14 10:46:28;;;;;;;;;;;;;;;19.03;100.00;98611.41;5033266;28;20025;-65
2022/10/14 10:49:09;;;;;;;8.38;3.00;;;;;;;19.20;100.00;98597.56;5032982;28;19913;-66
2022/10/14 10:52:07;;;;;;;6.85;2.47;;;;;;;19.91;100.00;98588.88;5035772;28;20041;-66
2022/10/14 10:54:56;;;;;;;4.88;2.90;;;;;;;19.57;100.00;98590.34;5035567;28;20024;-69
2022/10/14 10:57:56;;;;;;;6.43;2.97;;;;;;;18.98;100.00;98588.63;5032345;28;20039;-71
2022/10/14 11:00:22;;;;;;;8.18;3.25;;;;;;;18.48;100.00;98589.84;5009512;28;20051;-71
2022/10/14 11:03:20;;;;;;;7.72;3.63;;;;;;;18.05;100.00;98591.59;5032600;28;20035;-71
2022/10/14 11:05:49;;;;;;;9.90;2.90;;;;;;;17.94;100.00;98582.44;5031180;28;20087;-58
2022/10/14 11:12:02;;;;;;;7.50;3.25;;;;;;;17.75;100.00;98585.47;5030800;28;20350;-58
2022/10/14 11:14:53;;;;;;;;;;;;;;;17.74;100.00;98578.38;5033320;28;20512;-58
2022/10/14 11:17:55;;;;;;;6.55;2.95;;;;;;;17.66;100.00;98578.81;5033950;28;19920;-58
2022/10/14 11:20:23;;;;;;;4.43;3.10;;;;;;;17.83;100.00;98569.72;5032576;28;20056;-57
2022/10/14 11:22:52;;;;;;;7.93;3.67;;;;;;;17.86;100.00;98566.47;5032647;28;20079;-57
2022/10/14 11:25:37;;;;;;;4.07;2.83;;;;;;;17.89;100.00;98564.06;5033536;28;20029;-57
2022/10/14 11:28:27;;;;;;;4.72;2.88;;;;;;;17.92;100.00;98549.88;5035102;28;20148;-57
2022/10/14 11:30:58;;;;;;;6.38;3.05;;;;;;;17.90;100.00;98553.94;5032911;28;20036;-57
2022/10/14 11:33:48;;;;;;;7.05;3.40;;;;;;;17.79;100.00;98554.84;5038430;28;20033;-57